createdAt,value
2023-04-29T00:02:19.797Z,13.76
2023-04-29T00:04:53.303Z,13.77
2023-04-29T00:07:24.166Z,13.73
2023-04-29T00:09:55.140Z,13.75
2023-04-29T00:12:25.393Z,13.69
2023-04-29T00:14:55.933Z,13.76
2023-04-29T00:17:26.537Z,13.70
2023-04-29T00:19:59.881Z,13.69
2023-04-29T00:22:31.555Z,13.68
2023-04-29T00:25:02.097Z,13.68
2023-04-29T00:27:37.476Z,13.68
2023-04-29T00:30:10.588Z,13.67
2023-04-29T00:32:42.393Z,13.74
2023-04-29T00:35:16.721Z,13.71
2023-04-29T00:37:47.332Z,13.63
2023-04-29T00:40:18.272Z,13.53
2023-04-29T00:42:49.015Z,13.55
2023-04-29T00:45:20.889Z,13.46
2023-04-29T00:47:56.456Z,13.47
2023-04-29T00:50:30.410Z,13.55
2023-04-29T00:53:02.430Z,13.52
2023-04-29T00:55:34.216Z,13.59
2023-04-29T00:58:05.589Z,13.60
2023-04-29T01:00:37.175Z,13.58
2023-04-29T01:03:10.818Z,13.59
2023-04-29T01:05:44.133Z,13.63
2023-04-29T01:08:37.317Z,13.69
2023-04-29T01:11:13.215Z,13.61
2023-04-29T01:13:53.588Z,13.57
2023-04-29T01:16:34.234Z,13.51
2023-04-29T01:19:20.883Z,13.42
2023-04-29T01:21:54.891Z,13.43
2023-04-29T01:24:28.501Z,13.40
2023-04-29T01:27:23.751Z,13.45
2023-04-29T01:30:02.989Z,13.59
2023-04-29T01:32:47.353Z,13.50
2023-04-29T01:35:35.427Z,13.48
2023-04-29T01:38:23.036Z,13.55
2023-04-29T01:41:09.452Z,13.72
2023-04-29T01:43:42.197Z,13.77
2023-04-29T01:46:22.597Z,13.80
2023-04-29T01:48:58.240Z,13.77
2023-04-29T01:51:31.737Z,13.81
2023-04-29T01:54:02.871Z,13.88
2023-04-29T01:56:36.360Z,13.90
2023-04-29T01:59:12.752Z,13.92
2023-04-29T02:02:21.556Z,13.91
2023-04-29T02:05:00.967Z,13.71
2023-04-29T02:07:34.484Z,13.65
2023-04-29T02:10:07.159Z,13.70
2023-04-29T02:12:42.680Z,13.75
2023-04-29T02:15:14.235Z,13.74
2023-04-29T02:17:44.824Z,13.70
2023-04-29T02:20:19.093Z,13.66
2023-04-29T02:22:52.512Z,13.62
2023-04-29T02:25:24.662Z,13.63
2023-04-29T02:27:57.742Z,13.66
2023-04-29T02:30:28.464Z,13.77
2023-04-29T02:33:02.169Z,13.89
2023-04-29T02:35:32.725Z,13.95
2023-04-29T02:38:03.231Z,13.93
2023-04-29T02:40:33.763Z,13.89
2023-04-29T02:43:06.942Z,13.68
2023-04-29T02:45:40.736Z,13.73
2023-04-29T02:48:11.700Z,13.73
2023-04-29T02:50:41.910Z,13.63
2023-04-29T02:53:12.450Z,13.49
2023-04-29T02:55:43.560Z,13.48
2023-04-29T02:58:16.820Z,13.50
2023-04-29T03:00:47.448Z,13.61
2023-04-29T03:03:18.841Z,13.60
2023-04-29T03:05:52.495Z,13.49
2023-04-29T03:08:26.208Z,13.47
2023-04-29T03:10:57.000Z,13.56
2023-04-29T03:13:30.289Z,13.66
2023-04-29T03:16:01.681Z,13.62
2023-04-29T03:18:35.330Z,13.51
2023-04-29T03:21:06.613Z,13.49
2023-04-29T03:23:39.529Z,13.42
2023-04-29T03:26:13.475Z,13.37
2023-04-29T03:28:46.786Z,13.39
2023-04-29T03:31:21.423Z,13.37
2023-04-29T03:33:53.675Z,13.38
2023-04-29T03:36:25.088Z,13.34
2023-04-29T03:39:12.084Z,13.29
2023-04-29T03:41:42.661Z,13.25
2023-04-29T03:44:18.559Z,13.24
2023-04-29T03:46:51.532Z,13.24
2023-04-29T03:49:22.105Z,13.31
2023-04-29T03:51:52.927Z,13.33
2023-04-29T03:54:23.955Z,13.34
2023-04-29T03:56:55.980Z,13.30
2023-04-29T03:59:34.317Z,13.40
2023-04-29T04:02:05.488Z,13.33
2023-04-29T04:04:37.012Z,13.41
2023-04-29T04:07:07.833Z,13.45
2023-04-29T04:10:00.733Z,13.42
2023-04-29T04:12:31.305Z,13.41
2023-04-29T04:15:06.435Z,13.36
2023-04-29T04:17:36.971Z,13.37
2023-04-29T04:20:09.376Z,13.36
2023-04-29T04:22:40.277Z,13.45
2023-04-29T04:25:19.994Z,13.43
2023-04-29T04:27:51.616Z,13.44
2023-04-29T04:30:46.098Z,13.59
2023-04-29T04:33:17.074Z,13.58
2023-04-29T04:35:49.896Z,13.61
2023-04-29T04:38:22.732Z,13.57
2023-04-29T04:40:53.326Z,13.71
2023-04-29T04:43:35.171Z,13.69
2023-04-29T04:46:17.677Z,13.61
2023-04-29T04:48:59.079Z,13.59
2023-04-29T04:51:31.869Z,13.52
2023-04-29T04:54:02.379Z,13.56
2023-04-29T04:56:39.806Z,13.59
2023-04-29T04:59:11.237Z,13.62
2023-04-29T05:01:46.699Z,13.53
2023-04-29T05:04:18.694Z,13.67
2023-04-29T05:06:49.772Z,13.72
2023-04-29T05:09:22.539Z,13.81
2023-04-29T05:11:53.164Z,13.88
2023-04-29T05:14:23.927Z,13.86
2023-04-29T05:17:03.579Z,13.98
2023-04-29T05:19:34.319Z,14.03
2023-04-29T05:22:05.347Z,13.99
2023-04-29T05:24:36.271Z,13.91
2023-04-29T05:27:09.899Z,13.85
2023-04-29T05:29:40.519Z,13.80
2023-04-29T05:32:13.898Z,13.83
2023-04-29T05:34:45.083Z,13.85
2023-04-29T05:37:18.779Z,13.82
2023-04-29T05:40:04.563Z,13.85
2023-04-29T05:42:39.590Z,13.96
2023-04-29T05:45:12.821Z,13.86
2023-04-29T05:47:46.095Z,13.82
2023-04-29T05:50:16.681Z,13.75
2023-04-29T05:52:47.347Z,13.85
2023-04-29T05:55:21.204Z,13.79
2023-04-29T05:57:52.387Z,13.72
2023-04-29T06:00:24.115Z,13.77
2023-04-29T06:03:02.533Z,13.79
2023-04-29T06:05:35.541Z,13.77
2023-04-29T06:08:14.114Z,13.75
2023-04-29T06:10:52.151Z,13.81
2023-04-29T06:13:23.046Z,13.94
2023-04-29T06:15:53.974Z,14.01
2023-04-29T06:18:29.325Z,14.15
2023-04-29T06:21:05.964Z,14.14
2023-04-29T06:23:36.684Z,14.17
2023-04-29T06:26:12.771Z,14.22
2023-04-29T06:28:43.340Z,14.21
2023-04-29T06:31:14.906Z,14.34
2023-04-29T06:33:51.372Z,14.33
2023-04-29T06:36:21.944Z,14.29
2023-04-29T06:39:11.260Z,14.29
2023-04-29T06:42:16.697Z,14.11
2023-04-29T06:45:05.665Z,14.00
2023-04-29T06:48:05.373Z,14.05
2023-04-29T06:51:00.715Z,14.06
2023-04-29T06:53:31.463Z,14.04
2023-04-29T06:56:02.031Z,14.04
2023-04-29T06:58:32.538Z,14.00
2023-04-29T07:01:04.475Z,13.94
2023-04-29T07:03:35.082Z,14.07
2023-04-29T07:06:11.265Z,14.14
2023-04-29T07:08:42.152Z,14.14
2023-04-29T07:11:14.364Z,14.18
2023-04-29T07:13:44.940Z,14.25
2023-04-29T07:16:21.854Z,14.24
2023-04-29T07:18:52.488Z,14.20
2023-04-29T07:21:25.811Z,14.22
2023-04-29T07:23:57.055Z,14.35
2023-04-29T07:26:28.799Z,14.53
2023-04-29T07:28:59.609Z,14.77
2023-04-29T07:31:30.164Z,14.94
2023-04-29T07:34:00.981Z,14.90
2023-04-29T07:36:34.292Z,15.02
2023-04-29T07:39:05.251Z,14.95
2023-04-29T07:41:36.071Z,14.85
2023-04-29T07:44:06.646Z,14.94
2023-04-29T07:46:38.045Z,15.05
2023-04-29T07:49:08.669Z,15.10
2023-04-29T07:51:45.081Z,15.33
2023-04-29T07:54:19.761Z,15.54
2023-04-29T07:56:50.708Z,15.62
2023-04-29T07:59:24.974Z,15.83
2023-04-29T08:01:55.898Z,16.01
2023-04-29T08:04:26.612Z,16.04
2023-04-29T08:07:10.820Z,15.89
2023-04-29T08:09:41.326Z,15.68
2023-04-29T08:12:14.126Z,15.70
2023-04-29T08:14:44.710Z,16.04
2023-04-29T08:17:17.822Z,16.38
2023-04-29T08:19:48.415Z,16.66
2023-04-29T08:22:22.509Z,16.64
2023-04-29T08:24:53.359Z,16.49
2023-04-29T08:27:24.465Z,16.42
2023-04-29T08:29:54.893Z,16.36
2023-04-29T08:32:25.895Z,16.11
2023-04-29T08:34:56.693Z,16.01
2023-04-29T08:37:29.831Z,15.80
2023-04-29T08:40:00.290Z,15.70
2023-04-29T08:42:38.810Z,15.76
2023-04-29T08:45:13.797Z,15.76
2023-04-29T08:47:45.028Z,15.70
2023-04-29T08:50:15.659Z,15.72
2023-04-29T08:52:48.997Z,15.61
2023-04-29T08:55:23.115Z,15.74
2023-04-29T08:57:59.778Z,15.78
2023-04-29T09:00:35.475Z,15.69
2023-04-29T09:03:17.807Z,15.63
2023-04-29T09:05:53.451Z,15.80
2023-04-29T09:08:27.954Z,15.92
2023-04-29T09:10:59.866Z,15.83
2023-04-29T09:13:33.619Z,15.79
2023-04-29T09:16:10.674Z,15.87
2023-04-29T09:18:49.269Z,16.15
2023-04-29T09:21:23.034Z,16.23
2023-04-29T09:23:57.882Z,16.34
2023-04-29T09:26:37.199Z,16.34
2023-04-29T09:29:16.497Z,16.40
2023-04-29T09:31:47.692Z,16.46
2023-04-29T09:34:21.283Z,16.51
2023-04-29T09:36:57.220Z,16.69
2023-04-29T09:39:44.899Z,16.83
2023-04-29T09:42:15.647Z,16.97
2023-04-29T09:44:46.893Z,16.95
2023-04-29T09:47:17.682Z,17.00
2023-04-29T09:49:50.402Z,16.99
2023-04-29T09:52:21.400Z,17.14
2023-04-29T09:54:54.726Z,17.31
2023-04-29T09:57:25.803Z,17.18
2023-04-29T09:59:56.011Z,16.90
2023-04-29T10:02:28.642Z,16.34
2023-04-29T10:05:00.616Z,15.91
2023-04-29T10:07:33.966Z,15.62
2023-04-29T10:10:11.133Z,15.44
2023-04-29T10:12:44.452Z,15.21
2023-04-29T10:15:25.031Z,15.09
2023-04-29T10:18:02.979Z,14.98
2023-04-29T10:20:34.444Z,14.91
2023-04-29T10:23:06.559Z,14.98
2023-04-29T10:25:40.835Z,15.00
2023-04-29T10:28:17.133Z,15.12
2023-04-29T10:30:48.790Z,15.29
2023-04-29T10:33:20.904Z,15.52
2023-04-29T10:35:54.353Z,15.88
2023-04-29T10:38:31.802Z,15.92
2023-04-29T10:41:11.945Z,15.85
2023-04-29T10:43:42.481Z,15.79
2023-04-29T10:46:27.031Z,15.73
2023-04-29T10:49:04.140Z,15.51
2023-04-29T10:51:37.331Z,15.35
2023-04-29T10:54:12.564Z,15.33
2023-04-29T10:56:50.717Z,15.29
2023-04-29T10:59:25.295Z,15.29
2023-04-29T11:01:57.006Z,15.26
2023-04-29T11:04:27.686Z,15.22
2023-04-29T11:07:01.316Z,15.08
2023-04-29T11:09:34.407Z,15.02
2023-04-29T11:12:09.097Z,14.94
2023-04-29T11:14:41.325Z,15.06
2023-04-29T11:17:14.003Z,15.04
2023-04-29T11:19:47.718Z,15.09
2023-04-29T11:22:30.574Z,15.10
2023-04-29T11:25:03.368Z,15.15
2023-04-29T11:27:38.908Z,15.14
2023-04-29T11:30:11.528Z,15.20
2023-04-29T11:32:43.891Z,15.28
2023-04-29T11:35:16.508Z,15.33
2023-04-29T11:37:48.777Z,15.43
2023-04-29T11:40:19.775Z,15.47
2023-04-29T11:42:53.351Z,15.45
2023-04-29T11:45:24.416Z,15.34
2023-04-29T11:47:55.965Z,15.32
2023-04-29T11:50:27.608Z,15.30
2023-04-29T11:53:02.302Z,15.25
2023-04-29T11:55:34.909Z,15.38
2023-04-29T11:58:09.453Z,15.35
2023-04-29T12:00:43.091Z,15.36
2023-04-29T12:03:18.336Z,15.34
2023-04-29T12:05:54.306Z,15.25
2023-04-29T12:08:27.457Z,15.39
2023-04-29T12:11:02.397Z,15.27
2023-04-29T12:13:38.726Z,15.14
2023-04-29T12:16:12.153Z,15.15
2023-04-29T12:18:44.078Z,15.10
2023-04-29T12:21:17.856Z,14.98
2023-04-29T12:23:51.231Z,14.98
2023-04-29T12:26:25.190Z,14.98
2023-04-29T12:29:02.141Z,15.13
2023-04-29T12:31:39.824Z,15.31
2023-04-29T12:34:12.685Z,15.46
2023-04-29T12:36:47.085Z,15.37
2023-04-29T12:39:21.700Z,15.24
2023-04-29T12:41:52.674Z,15.06
2023-04-29T12:44:28.105Z,14.99
2023-04-29T12:47:01.782Z,14.99
2023-04-29T12:49:33.650Z,15.26
2023-04-29T12:52:05.642Z,15.43
2023-04-29T12:54:36.869Z,15.62
2023-04-29T12:57:10.146Z,15.67
2023-04-29T12:59:46.927Z,15.71
2023-04-29T13:02:18.399Z,15.75
2023-04-29T13:04:52.220Z,15.64
2023-04-29T13:07:23.998Z,15.80
2023-04-29T13:09:56.301Z,16.22
2023-04-29T13:12:29.118Z,16.85
2023-04-29T13:15:02.985Z,16.72
2023-04-29T13:17:35.662Z,16.47
2023-04-29T13:20:10.681Z,16.17
2023-04-29T13:22:43.732Z,15.87
2023-04-29T13:25:16.537Z,15.59
2023-04-29T13:27:50.909Z,15.50
2023-04-29T13:30:26.306Z,15.36
2023-04-29T13:33:03.944Z,15.32
2023-04-29T13:35:40.487Z,15.41
2023-04-29T13:38:11.630Z,15.53
2023-04-29T13:40:46.669Z,15.63
2023-04-29T13:43:26.454Z,15.41
2023-04-29T13:46:09.416Z,15.23
2023-04-29T13:51:55.958Z,14.96
2023-04-29T13:57:05.211Z,14.97
2023-04-29T13:59:41.999Z,14.97
2023-04-29T14:02:25.676Z,14.80
2023-04-29T14:04:57.280Z,14.71
2023-04-29T14:07:28.103Z,14.81
2023-04-29T14:09:58.773Z,14.98
2023-04-29T14:12:29.262Z,14.98
2023-04-29T14:15:00.519Z,14.84
2023-04-29T14:17:33.942Z,14.69
2023-04-29T14:20:04.419Z,14.56
2023-04-29T14:22:34.966Z,14.47
2023-04-29T14:25:05.470Z,14.25
2023-04-29T14:27:37.051Z,14.25
2023-04-29T14:30:09.596Z,14.22
2023-04-29T14:32:42.705Z,14.24
2023-04-29T14:35:13.553Z,14.41
2023-04-29T14:37:44.056Z,14.56
2023-04-29T14:40:15.280Z,14.58
2023-04-29T14:42:45.762Z,14.56
2023-04-29T14:45:17.309Z,14.54
2023-04-29T14:47:50.459Z,14.56
2023-04-29T14:50:23.311Z,14.51
2023-04-29T14:52:53.908Z,14.56
2023-04-29T14:55:24.413Z,14.58
2023-04-29T14:57:55.050Z,14.62
2023-04-29T15:00:25.663Z,14.58
2023-04-29T15:02:59.156Z,14.48
2023-04-29T15:05:30.687Z,14.52
2023-04-29T15:08:01.885Z,14.62
2023-04-29T15:10:32.773Z,14.66
2023-04-29T15:13:03.000Z,14.57
2023-04-29T15:15:33.490Z,14.58
2023-04-29T15:18:08.808Z,14.59
2023-04-29T15:20:39.707Z,14.50
2023-04-29T15:23:11.355Z,14.41
2023-04-29T15:25:41.844Z,14.45
2023-04-29T15:28:12.289Z,14.52
2023-04-29T15:30:42.751Z,14.49
2023-04-29T15:33:15.895Z,14.44
2023-04-29T15:35:46.487Z,14.43
2023-04-29T15:38:16.917Z,14.44
2023-04-29T15:40:47.491Z,14.45
2023-04-29T15:43:18.200Z,14.48
2023-04-29T15:45:48.678Z,14.44
2023-04-29T15:48:21.980Z,14.45
2023-04-29T15:50:53.713Z,14.58
2023-04-29T15:53:24.198Z,14.70
2023-04-29T15:55:54.794Z,14.70
2023-04-29T15:58:25.353Z,14.60
2023-04-29T16:00:55.919Z,14.50
2023-04-29T16:03:29.108Z,14.46
2023-04-29T16:06:01.557Z,14.39
2023-04-29T16:08:32.374Z,14.34
2023-04-29T16:11:03.375Z,14.39
2023-04-29T16:13:36.121Z,14.34
2023-04-29T16:16:07.257Z,14.31
2023-04-29T16:18:40.461Z,14.39
2023-04-29T16:21:11.523Z,14.43
2023-04-29T16:23:41.803Z,14.46
2023-04-29T16:26:12.806Z,14.37
2023-04-29T16:28:43.603Z,14.36
2023-04-29T16:31:15.833Z,14.30
2023-04-29T16:33:49.613Z,14.22
2023-04-29T16:36:20.519Z,14.26
2023-04-29T16:38:51.593Z,14.27
2023-04-29T16:41:23.349Z,14.19
2023-04-29T16:43:53.812Z,14.14
2023-04-29T16:46:24.547Z,14.17
2023-04-29T16:48:58.189Z,14.19
2023-04-29T16:51:29.336Z,14.23
2023-04-29T16:53:59.889Z,14.23
2023-04-29T16:56:30.480Z,14.21
2023-04-29T16:59:01.056Z,14.17
2023-04-29T17:01:32.323Z,14.11
2023-04-29T17:04:05.665Z,13.98
2023-04-29T17:06:37.391Z,13.93
2023-04-29T17:09:08.088Z,13.91
2023-04-29T17:11:38.686Z,13.94
2023-04-29T17:14:09.325Z,13.91
2023-04-29T17:16:39.988Z,13.84
2023-04-29T17:19:13.150Z,13.85
2023-04-29T17:21:43.952Z,13.82
2023-04-29T17:24:14.515Z,13.71
2023-04-29T17:26:45.033Z,13.73
2023-04-29T17:29:15.591Z,13.72
2023-04-29T17:31:54.947Z,13.74
2023-04-29T17:34:30.092Z,13.66
2023-04-29T17:37:01.490Z,13.60
2023-04-29T17:39:32.263Z,13.59
2023-04-29T17:42:02.958Z,13.59
2023-04-29T17:44:33.458Z,13.56
2023-04-29T17:47:03.995Z,13.59
2023-04-29T17:49:37.068Z,13.55
2023-04-29T17:52:08.040Z,13.56
2023-04-29T17:54:38.374Z,13.50
2023-04-29T17:57:08.914Z,13.46
2023-04-29T17:59:39.670Z,13.50
2023-04-29T18:02:10.587Z,13.58
2023-04-29T18:04:43.592Z,13.55
2023-04-29T18:07:14.056Z,13.61
2023-04-29T18:09:44.529Z,13.59
2023-04-29T18:12:15.078Z,13.60
2023-04-29T18:14:46.832Z,13.55
2023-04-29T18:17:17.510Z,13.52
2023-04-29T18:19:53.077Z,13.49
2023-04-29T18:22:23.708Z,13.50
2023-04-29T18:24:54.294Z,13.53
2023-04-29T18:27:24.905Z,13.52
2023-04-29T18:29:55.782Z,13.53
2023-04-29T18:32:26.622Z,13.48
2023-04-29T18:34:59.796Z,13.51
2023-04-29T18:37:30.404Z,13.55
2023-04-29T18:40:00.941Z,13.56
2023-04-29T18:42:31.632Z,13.58
2023-04-29T18:45:02.192Z,13.61
2023-04-29T18:47:32.712Z,13.57
2023-04-29T18:50:06.165Z,13.55
2023-04-29T18:52:37.012Z,13.52
2023-04-29T18:55:08.697Z,13.52
2023-04-29T18:57:39.547Z,13.53
2023-04-29T19:00:12.249Z,13.61
2023-04-29T19:02:42.912Z,13.55
2023-04-29T19:05:16.146Z,13.60
2023-04-29T19:07:46.878Z,13.62
2023-04-29T19:10:17.418Z,13.62
2023-04-29T19:12:48.027Z,13.61
2023-04-29T19:15:18.844Z,13.55
2023-04-29T19:17:49.466Z,13.52
2023-04-29T19:20:22.948Z,13.54
2023-04-29T19:22:54.013Z,13.50
2023-04-29T19:25:26.331Z,13.50
2023-04-29T19:27:57.072Z,13.46
2023-04-29T19:30:28.118Z,13.45
2023-04-29T19:32:58.807Z,13.51
2023-04-29T19:35:32.332Z,13.50
2023-04-29T19:38:02.798Z,13.56
2023-04-29T19:40:33.367Z,13.55
2023-04-29T19:43:03.907Z,13.56
2023-04-29T19:45:34.499Z,13.55
2023-04-29T19:48:05.181Z,13.53
2023-04-29T19:50:38.311Z,13.51
2023-04-29T19:53:08.851Z,13.52
2023-04-29T19:55:39.389Z,13.53
2023-04-29T19:58:10.916Z,13.54
2023-04-29T20:00:41.496Z,13.50
2023-04-29T20:03:11.998Z,13.47
2023-04-29T20:05:45.414Z,13.46
2023-04-29T20:08:16.646Z,13.48
2023-04-29T20:10:48.349Z,13.48
2023-04-29T20:13:18.834Z,13.50
2023-04-29T20:15:50.044Z,13.45
2023-04-29T20:18:21.341Z,13.44
2023-04-29T20:20:54.454Z,13.44
2023-04-29T20:23:25.292Z,13.43
2023-04-29T20:25:56.361Z,13.43
2023-04-29T20:28:27.035Z,13.40
2023-04-29T20:30:57.515Z,13.45
2023-04-29T20:33:28.107Z,13.45
2023-04-29T20:36:06.527Z,13.43
2023-04-29T20:38:37.965Z,13.44
2023-04-29T20:41:08.860Z,13.44
2023-04-29T20:43:39.337Z,13.41
2023-04-29T20:46:10.062Z,13.35
2023-04-29T20:48:40.811Z,13.34
2023-04-29T20:51:13.977Z,13.35
2023-04-29T20:53:44.500Z,13.36
2023-04-29T20:56:15.107Z,13.33
2023-04-29T20:58:45.793Z,13.29
2023-04-29T21:01:16.448Z,13.26
2023-04-29T21:03:47.031Z,13.25
2023-04-29T21:06:20.244Z,13.19
2023-04-29T21:08:50.764Z,13.17
2023-04-29T21:11:21.320Z,13.20
2023-04-29T21:13:52.724Z,13.16
2023-04-29T21:16:23.930Z,13.17
2023-04-29T21:18:54.528Z,13.20
2023-04-29T21:21:27.928Z,13.24
2023-04-29T21:23:58.433Z,13.24
2023-04-29T21:26:29.172Z,13.27
2023-04-29T21:28:59.642Z,13.20
2023-04-29T21:31:30.243Z,13.21
2023-04-29T21:34:01.140Z,13.19
2023-04-29T21:36:34.680Z,13.18
2023-04-29T21:39:06.408Z,13.13
2023-04-29T21:41:40.319Z,13.10
2023-04-29T21:44:11.065Z,13.11
2023-04-29T21:46:41.759Z,13.13
2023-04-29T21:49:12.608Z,13.16
2023-04-29T21:51:45.754Z,13.13
2023-04-29T21:54:16.272Z,13.12
2023-04-29T21:56:46.770Z,13.09
2023-04-29T21:59:17.420Z,13.10
2023-04-29T22:02:00.087Z,13.12
2023-04-29T22:04:31.168Z,13.11
2023-04-29T22:07:07.087Z,13.04
2023-04-29T22:09:37.742Z,13.07
2023-04-29T22:12:08.846Z,13.17
2023-04-29T22:14:38.969Z,13.13
2023-04-29T22:17:09.471Z,13.02
2023-04-29T22:19:40.049Z,13.06
2023-04-29T22:22:13.157Z,13.05
2023-04-29T22:24:43.544Z,13.09
2023-04-29T22:27:14.034Z,13.10
2023-04-29T22:29:44.620Z,13.11
2023-04-29T22:32:15.242Z,13.18
2023-04-29T22:34:45.780Z,13.15
2023-04-29T22:37:19.686Z,13.15
2023-04-29T22:39:50.580Z,13.09
2023-04-29T22:42:21.220Z,13.10
2023-04-29T22:44:51.914Z,13.04
2023-04-29T22:47:22.438Z,12.95
2023-04-29T22:49:53.154Z,13.00
2023-04-29T22:52:27.640Z,12.99
2023-04-29T22:54:58.411Z,13.00
2023-04-29T22:57:28.988Z,12.98
2023-04-29T23:00:00.308Z,12.98
2023-04-29T23:02:30.879Z,12.97
2023-04-29T23:05:03.754Z,13.00
2023-04-29T23:07:37.280Z,12.95
2023-04-29T23:10:08.996Z,12.93
2023-04-29T23:12:39.513Z,13.01
2023-04-29T23:15:12.241Z,12.99
2023-04-29T23:17:43.072Z,12.99
2023-04-29T23:20:16.035Z,12.98
2023-04-29T23:22:49.173Z,13.00
2023-04-29T23:25:20.008Z,12.99
2023-04-29T23:27:50.735Z,12.94
2023-04-29T23:30:25.848Z,12.94
2023-04-29T23:32:56.862Z,12.94
2023-04-29T23:35:27.476Z,12.95
2023-04-29T23:38:00.749Z,12.91
2023-04-29T23:40:31.868Z,12.90
2023-04-29T23:43:02.681Z,12.88
2023-04-29T23:45:36.220Z,12.90
2023-04-29T23:48:06.948Z,12.84
2023-04-29T23:50:39.890Z,12.81
2023-04-29T23:53:13.378Z,12.83
2023-04-29T23:55:43.971Z,12.76
2023-04-29T23:58:14.687Z,12.79
